createdAt,value
2019-01-24T00:01:00.448Z,-4.70
2019-01-24T00:03:29.590Z,-4.70
2019-01-24T00:05:58.604Z,-4.60
2019-01-24T00:08:27.511Z,-4.60
2019-01-24T00:10:56.982Z,-4.60
2019-01-24T00:13:25.938Z,-4.60
2019-01-24T00:15:55.099Z,-4.50
2019-01-24T00:18:24.034Z,-4.60
2019-01-24T00:20:53.015Z,-4.60
2019-01-24T00:23:22.172Z,-4.70
2019-01-24T00:25:51.164Z,-4.70
2019-01-24T00:28:20.064Z,-4.70
2019-01-24T00:30:49.243Z,-4.80
2019-01-24T00:33:18.242Z,-4.80
2019-01-24T00:35:48.346Z,-4.80
2019-01-24T00:38:17.445Z,-4.80
2019-01-24T00:40:46.477Z,-4.80
2019-01-24T00:43:15.404Z,-4.70
2019-01-24T00:45:44.354Z,-4.80
2019-01-24T00:48:13.277Z,-4.80
2019-01-24T00:50:42.269Z,-4.70
2019-01-24T00:53:11.229Z,-4.70
2019-01-24T00:55:40.160Z,-4.70
2019-01-24T00:58:09.155Z,-4.70
2019-01-24T01:00:38.082Z,-4.70
2019-01-24T01:03:07.191Z,-4.60
2019-01-24T01:05:36.380Z,-4.60
2019-01-24T01:08:05.457Z,-4.60
2019-01-24T01:10:34.428Z,-4.60
2019-01-24T01:13:03.639Z,-4.60
2019-01-24T01:15:32.565Z,-4.60
2019-01-24T01:18:02.384Z,-4.60
2019-01-24T01:20:31.548Z,-4.70
2019-01-24T01:23:00.443Z,-4.70
2019-01-24T01:25:29.403Z,-4.60
2019-01-24T01:27:58.374Z,-4.60
2019-01-24T01:30:27.328Z,-4.60
2019-01-24T01:32:56.451Z,-4.60
2019-01-24T01:35:25.390Z,-4.60
2019-01-24T01:37:54.378Z,-4.60
2019-01-24T01:40:23.358Z,-4.60
2019-01-24T01:42:52.286Z,-4.60
2019-01-24T01:45:22.201Z,-4.60
2019-01-24T01:47:51.413Z,-4.60
2019-01-24T01:50:24.370Z,-4.60
2019-01-24T01:52:53.902Z,-4.60
2019-01-24T01:55:22.853Z,-4.60
2019-01-24T01:57:51.795Z,-4.50
2019-01-24T02:00:23.700Z,-4.50
2019-01-24T02:02:52.684Z,-4.50
2019-01-24T02:05:21.893Z,-4.50
2019-01-24T02:07:51.148Z,-4.50
2019-01-24T02:10:22.393Z,-4.50
2019-01-24T02:12:51.931Z,-4.40
2019-01-24T02:15:21.511Z,-4.40
2019-01-24T02:17:50.667Z,-4.40
2019-01-24T02:20:22.128Z,-4.40
2019-01-24T02:22:51.671Z,-4.40
2019-01-24T02:25:22.148Z,-4.40
2019-01-24T02:27:51.148Z,-4.40
2019-01-24T02:30:23.343Z,-4.40
2019-01-24T02:32:52.310Z,-4.30
2019-01-24T02:35:21.437Z,-4.20
2019-01-24T02:37:50.795Z,-4.10
2019-01-24T02:40:19.798Z,-4.00
2019-01-24T02:42:48.814Z,-4.00
2019-01-24T02:45:20.649Z,-4.00
2019-01-24T02:47:49.699Z,-4.00
2019-01-24T02:50:23.832Z,-4.00
2019-01-24T02:52:53.077Z,-4.00
2019-01-24T02:55:22.001Z,-4.10
2019-01-24T02:57:51.043Z,-4.20
2019-01-24T03:00:21.797Z,-4.30
2019-01-24T03:02:50.877Z,-4.30
2019-01-24T03:05:21.819Z,-4.30
2019-01-24T03:07:51.496Z,-4.30
2019-01-24T03:10:20.691Z,-4.30
2019-01-24T03:12:50.076Z,-4.20
2019-01-24T03:15:20.819Z,-4.20
2019-01-24T03:17:49.880Z,-4.20
2019-01-24T03:20:19.361Z,-4.20
2019-01-24T03:22:48.525Z,-4.10
2019-01-24T03:25:18.535Z,-4.10
2019-01-24T03:27:47.929Z,-4.10
2019-01-24T03:30:18.904Z,-4.10
2019-01-24T03:32:48.210Z,-4.10
2019-01-24T03:35:19.464Z,-4.10
2019-01-24T03:37:48.528Z,-4.10
2019-01-24T03:40:17.555Z,-4.20
2019-01-24T03:42:46.588Z,-4.20
2019-01-24T03:45:18.091Z,-4.20
2019-01-24T03:47:47.002Z,-4.20
2019-01-24T03:50:17.797Z,-4.20
2019-01-24T03:52:46.870Z,-4.20
2019-01-24T03:55:19.671Z,-4.20
2019-01-24T03:57:50.949Z,-4.20
2019-01-24T04:00:23.105Z,-4.20
2019-01-24T04:02:52.406Z,-4.10
2019-01-24T04:05:22.244Z,-4.10
2019-01-24T04:07:51.451Z,-4.10
2019-01-24T04:10:21.844Z,-4.10
2019-01-24T04:12:50.887Z,-4.20
2019-01-24T04:15:21.638Z,-4.10
2019-01-24T04:17:50.557Z,-4.00
2019-01-24T04:20:19.641Z,-3.80
2019-01-24T04:22:48.548Z,-3.80
2019-01-24T04:25:18.050Z,-3.80
2019-01-24T04:27:47.149Z,-3.80
2019-01-24T04:30:18.585Z,-3.90
2019-01-24T04:32:47.726Z,-3.90
2019-01-24T04:35:20.146Z,-4.00
2019-01-24T04:37:47.762Z,-4.10
2019-01-24T04:40:19.327Z,-4.00
2019-01-24T04:42:48.543Z,-3.90
2019-01-24T04:45:18.289Z,-3.90
2019-01-24T04:47:47.480Z,-3.80
2019-01-24T04:50:17.662Z,-3.90
2019-01-24T04:52:47.113Z,-3.90
2019-01-24T04:55:18.328Z,-4.00
2019-01-24T04:57:47.384Z,-4.00
2019-01-24T05:00:21.728Z,-4.10
2019-01-24T05:02:50.724Z,-4.10
2019-01-24T05:05:27.190Z,-4.10
2019-01-24T05:07:50.669Z,-4.10
2019-01-24T05:10:19.596Z,-4.10
2019-01-24T05:12:48.528Z,-4.10
2019-01-24T05:15:17.558Z,-4.10
2019-01-24T05:17:46.503Z,-4.10
2019-01-24T05:20:15.577Z,-4.10
2019-01-24T05:22:44.497Z,-4.10
2019-01-24T05:25:15.498Z,-4.00
2019-01-24T05:27:45.979Z,-3.90
2019-01-24T05:30:23.398Z,-3.90
2019-01-24T05:32:52.309Z,-3.80
2019-01-24T05:35:21.723Z,-3.80
2019-01-24T05:37:50.703Z,-3.90
2019-01-24T05:40:19.681Z,-3.90
2019-01-24T05:42:48.585Z,-4.00
2019-01-24T05:45:17.748Z,-3.90
2019-01-24T05:47:46.746Z,-3.80
2019-01-24T05:50:15.674Z,-3.70
2019-01-24T05:52:44.743Z,-3.80
2019-01-24T05:55:14.644Z,-3.80
2019-01-24T05:57:43.567Z,-3.90
2019-01-24T06:00:19.587Z,-3.90
2019-01-24T06:02:48.903Z,-3.90
2019-01-24T06:05:17.996Z,-3.90
2019-01-24T06:07:47.049Z,-3.80
2019-01-24T06:10:17.207Z,-3.90
2019-01-24T06:12:46.222Z,-3.90
2019-01-24T06:15:16.990Z,-3.90
2019-01-24T06:17:46.016Z,-3.90
2019-01-24T06:20:15.630Z,-4.00
2019-01-24T06:22:44.574Z,-4.00
2019-01-24T06:25:14.971Z,-4.00
2019-01-24T06:27:45.574Z,-4.00
2019-01-24T06:30:17.354Z,-4.00
2019-01-24T06:32:46.362Z,-4.00
2019-01-24T06:35:15.310Z,-4.10
2019-01-24T06:37:44.292Z,-4.10
2019-01-24T06:40:14.957Z,-4.10
2019-01-24T06:42:46.940Z,-4.20
2019-01-24T06:45:18.237Z,-4.20
2019-01-24T06:47:47.195Z,-4.10
2019-01-24T06:50:17.741Z,-4.10
2019-01-24T06:52:47.005Z,-4.10
2019-01-24T06:55:23.880Z,-4.10
2019-01-24T06:57:52.907Z,-4.10
2019-01-24T07:00:21.931Z,-4.10
2019-01-24T07:02:50.809Z,-4.00
2019-01-24T07:05:19.774Z,-3.90
2019-01-24T07:07:49.451Z,-4.00
2019-01-24T07:10:20.369Z,-4.00
2019-01-24T07:12:49.337Z,-3.90
2019-01-24T07:15:21.155Z,-3.80
2019-01-24T07:17:50.173Z,-3.70
2019-01-24T07:20:20.741Z,-3.70
2019-01-24T07:22:49.874Z,-3.80
2019-01-24T07:25:24.340Z,-3.80
2019-01-24T07:27:54.254Z,-3.90
2019-01-24T07:30:23.316Z,-3.90
2019-01-24T07:32:52.317Z,-3.80
2019-01-24T07:35:21.820Z,-3.70
2019-01-24T07:37:50.786Z,-3.70
2019-01-24T07:40:22.012Z,-3.70
2019-01-24T07:42:51.446Z,-3.80
2019-01-24T07:45:28.719Z,-3.80
2019-01-24T07:47:57.664Z,-3.70
2019-01-24T07:50:26.763Z,-3.60
2019-01-24T07:52:55.888Z,-3.50
2019-01-24T07:55:27.742Z,-3.40
2019-01-24T07:57:56.158Z,-3.30
2019-01-24T08:00:27.184Z,-3.10
2019-01-24T08:02:56.309Z,-3.10
2019-01-24T08:05:27.004Z,-3.00
2019-01-24T08:07:56.146Z,-3.00
2019-01-24T08:10:25.939Z,-2.90
2019-01-24T08:12:54.994Z,-2.80
2019-01-24T08:15:24.421Z,-2.60
2019-01-24T08:17:53.350Z,-2.40
2019-01-24T08:20:24.598Z,-2.30
2019-01-24T08:22:54.959Z,-2.00
2019-01-24T08:25:24.197Z,-1.80
2019-01-24T08:27:53.483Z,-1.70
2019-01-24T08:30:24.929Z,-1.50
2019-01-24T08:32:54.491Z,-1.30
2019-01-24T08:35:25.685Z,-1.20
2019-01-24T08:37:54.693Z,-1.00
2019-01-24T08:40:24.762Z,-0.90
2019-01-24T08:42:53.966Z,-0.90
2019-01-24T08:45:23.116Z,-0.80
2019-01-24T08:47:52.076Z,-0.60
2019-01-24T08:50:26.039Z,-0.50
2019-01-24T08:52:55.246Z,-0.30
2019-01-24T08:55:30.195Z,-0.30
2019-01-24T08:57:59.181Z,-0.30
2019-01-24T09:00:28.419Z,-0.20
2019-01-24T09:02:57.544Z,0.00
2019-01-24T09:05:26.685Z,0.00
2019-01-24T09:07:55.913Z,-0.10
2019-01-24T09:10:27.609Z,-0.10
2019-01-24T09:12:56.602Z,-0.30
2019-01-24T09:15:29.284Z,-0.60
2019-01-24T09:17:58.456Z,-0.80
2019-01-24T09:20:27.444Z,-0.70
2019-01-24T09:22:56.472Z,-0.60
2019-01-24T09:25:25.472Z,-0.50
2019-01-24T09:27:54.435Z,-0.30
2019-01-24T09:30:28.719Z,-0.20
2019-01-24T09:32:57.808Z,-0.30
2019-01-24T09:35:26.739Z,-0.20
2019-01-24T09:37:55.697Z,-0.40
2019-01-24T09:40:25.297Z,-0.40
2019-01-24T09:42:54.293Z,-0.50
2019-01-24T09:45:25.581Z,-0.50
2019-01-24T09:47:55.812Z,-0.50
2019-01-24T09:50:26.480Z,-0.50
2019-01-24T09:52:55.732Z,-0.30
2019-01-24T09:55:24.722Z,-0.50
2019-01-24T09:57:53.651Z,-0.60
2019-01-24T10:00:25.408Z,-0.70
2019-01-24T10:02:54.614Z,-0.90
2019-01-24T10:05:23.832Z,-0.90
2019-01-24T10:07:52.754Z,-0.80
2019-01-24T10:10:23.727Z,-0.50
2019-01-24T10:12:55.008Z,-0.20
2019-01-24T10:15:24.776Z,-0.10
2019-01-24T10:17:55.198Z,0.00
2019-01-24T10:20:28.245Z,0.00
2019-01-24T10:22:57.301Z,-0.10
2019-01-24T10:25:28.648Z,-0.20
2019-01-24T10:27:59.209Z,-0.50
2019-01-24T10:30:28.592Z,-0.50
2019-01-24T10:32:57.786Z,-0.50
2019-01-24T10:35:26.858Z,-0.40
2019-01-24T10:37:56.093Z,-0.20
2019-01-24T10:40:27.447Z,0.00
2019-01-24T10:42:56.742Z,-0.30
2019-01-24T10:45:26.154Z,-0.40
2019-01-24T10:47:55.956Z,-0.50
2019-01-24T10:50:26.698Z,-0.60
2019-01-24T10:52:55.830Z,-0.60
2019-01-24T10:55:26.894Z,-0.60
2019-01-24T10:57:57.638Z,-0.60
2019-01-24T11:00:34.957Z,-0.60
2019-01-24T11:03:06.224Z,-0.70
2019-01-24T11:05:35.274Z,-0.80
2019-01-24T11:08:04.652Z,-0.60
2019-01-24T11:10:33.720Z,-0.50
2019-01-24T11:13:02.813Z,-0.40
2019-01-24T11:15:31.809Z,-0.50
2019-01-24T11:18:01.385Z,-0.40
2019-01-24T11:20:30.533Z,-0.30
2019-01-24T11:22:59.558Z,-1.40
2019-01-24T11:25:28.646Z,-1.90
2019-01-24T11:27:57.676Z,-2.00
2019-01-24T11:30:28.841Z,-2.10
2019-01-24T11:32:59.640Z,-2.10
2019-01-24T11:35:31.504Z,-2.00
2019-01-24T11:38:00.611Z,-1.90
2019-01-24T11:40:29.906Z,-1.70
2019-01-24T11:43:00.610Z,-1.50
2019-01-24T11:45:34.725Z,-1.40
2019-01-24T11:48:03.829Z,-1.40
2019-01-24T11:50:32.896Z,-1.40
2019-01-24T11:53:02.048Z,-1.40
2019-01-24T11:55:30.997Z,-1.40
2019-01-24T11:58:00.094Z,-1.50
2019-01-24T12:00:40.669Z,-1.60
2019-01-24T12:03:09.858Z,-1.50
2019-01-24T12:05:38.896Z,-1.50
2019-01-24T12:08:08.149Z,-1.60
2019-01-24T12:10:37.425Z,-1.90
2019-01-24T12:13:06.455Z,-2.10
2019-01-24T12:15:35.473Z,-2.10
2019-01-24T12:18:09.378Z,-2.10
2019-01-24T12:20:38.341Z,-2.30
2019-01-24T12:23:07.728Z,-2.30
2019-01-24T12:25:36.640Z,-2.40
2019-01-24T12:28:05.666Z,-2.40
2019-01-24T12:30:36.335Z,-2.40
2019-01-24T12:33:06.035Z,-2.40
2019-01-24T12:35:35.134Z,-2.50
2019-01-24T12:38:04.681Z,-2.50
2019-01-24T12:40:33.672Z,-2.40
2019-01-24T12:43:02.834Z,-2.40
2019-01-24T12:45:36.436Z,-2.50
2019-01-24T12:48:05.988Z,-2.60
2019-01-24T12:50:35.256Z,-2.60
2019-01-24T12:53:04.749Z,-2.60
2019-01-24T12:55:33.774Z,-2.60
2019-01-24T12:58:02.996Z,-2.60
2019-01-24T13:00:36.721Z,-2.60
2019-01-24T13:03:07.241Z,-2.60
2019-01-24T13:05:36.302Z,-2.50
2019-01-24T13:08:05.578Z,-2.60
2019-01-24T13:10:34.579Z,-2.60
2019-01-24T13:13:03.594Z,-2.60
2019-01-24T13:15:38.178Z,-2.60
2019-01-24T13:18:07.532Z,-2.70
2019-01-24T13:20:36.755Z,-2.60
2019-01-24T13:23:06.224Z,-2.60
2019-01-24T13:25:35.176Z,-2.50
2019-01-24T13:28:04.416Z,-2.50
2019-01-24T13:30:34.270Z,-2.50
2019-01-24T13:33:04.118Z,-2.40
2019-01-24T13:35:33.637Z,-2.40
2019-01-24T13:38:02.779Z,-2.40
2019-01-24T13:40:32.159Z,-2.30
2019-01-24T13:43:01.552Z,-2.30
2019-01-24T13:45:32.615Z,-2.20
2019-01-24T13:48:03.066Z,-2.20
2019-01-24T13:50:32.096Z,-2.10
2019-01-24T13:53:01.022Z,-2.20
2019-01-24T13:55:30.188Z,-2.20
2019-01-24T13:57:59.441Z,-2.20
2019-01-24T14:00:30.946Z,-2.20
2019-01-24T14:03:08.733Z,-2.20
2019-01-24T14:05:37.714Z,-2.20
2019-01-24T14:08:07.240Z,-2.20
2019-01-24T14:10:36.297Z,-2.10
2019-01-24T14:13:05.570Z,-2.00
2019-01-24T14:15:34.516Z,-2.00
2019-01-24T14:18:03.661Z,-2.10
2019-01-24T14:20:32.553Z,-2.10
2019-01-24T14:23:21.252Z,-2.20
2019-01-24T14:26:02.849Z,-2.20
2019-01-24T14:28:43.769Z,-2.30
2019-01-24T14:31:24.546Z,-2.50
2019-01-24T14:34:05.292Z,-2.60
2019-01-24T14:36:34.280Z,-2.70
2019-01-24T14:44:59.776Z,-2.80
2019-01-24T14:47:40.832Z,-2.80
2019-01-24T14:50:21.843Z,-2.80
2019-01-24T14:55:35.023Z,-2.80
2019-01-24T14:58:04.157Z,-2.90
2019-01-24T15:00:55.120Z,-2.90
2019-01-24T15:04:01.091Z,-2.90
2019-01-24T15:06:26.666Z,-2.90
2019-01-24T15:09:08.130Z,-2.90
2019-01-24T15:11:49.046Z,-3.00
2019-01-24T15:14:29.738Z,-3.00
2019-01-24T15:17:10.653Z,-3.00
2019-01-24T15:19:51.825Z,-3.00
2019-01-24T15:22:32.497Z,-3.00
2019-01-24T15:25:13.414Z,-3.00
2019-01-24T15:27:42.473Z,-3.00
2019-01-24T15:33:21.762Z,-3.00
2019-01-24T15:36:02.794Z,-3.10
2019-01-24T15:38:44.098Z,-3.10
2019-01-24T15:41:25.442Z,-3.10
2019-01-24T15:44:06.754Z,-3.10
2019-01-24T15:46:50.086Z,-3.10
2019-01-24T15:49:31.211Z,-3.10
2019-01-24T15:52:12.104Z,-3.10
2019-01-24T15:57:37.221Z,-3.20
2019-01-24T16:00:18.717Z,-3.20
2019-01-24T16:03:00.165Z,-3.20
2019-01-24T16:05:41.458Z,-3.30
2019-01-24T16:08:10.480Z,-3.30
2019-01-24T16:14:02.237Z,-3.10
2019-01-24T16:16:44.436Z,-3.00
2019-01-24T16:19:25.426Z,-3.00
2019-01-24T16:22:06.914Z,-3.10
2019-01-24T16:24:48.118Z,-3.10
2019-01-24T16:27:29.034Z,-3.10
2019-01-24T16:30:10.851Z,-3.20
2019-01-24T16:32:51.740Z,-3.30
2019-01-24T16:35:32.753Z,-3.40
2019-01-24T16:38:14.255Z,-3.50
2019-01-24T16:40:55.908Z,-3.40
2019-01-24T16:43:37.069Z,-3.50
2019-01-24T16:46:06.990Z,-3.50
2019-01-24T16:48:36.099Z,-3.30
2019-01-24T16:54:06.183Z,-3.20
2019-01-24T16:59:31.428Z,-3.10
2019-01-24T17:02:13.962Z,-3.20
2019-01-24T17:04:56.932Z,-3.20
2019-01-24T17:07:38.196Z,-3.30
2019-01-24T17:10:19.868Z,-3.50
2019-01-24T17:13:01.648Z,-3.50
2019-01-24T17:15:43.104Z,-3.60
2019-01-24T17:18:27.563Z,-3.70
2019-01-24T17:21:08.687Z,-3.70
2019-01-24T17:23:37.904Z,-3.70
2019-01-24T17:29:27.989Z,-3.70
2019-01-24T17:32:13.628Z,-3.70
2019-01-24T17:34:55.325Z,-3.60
2019-01-24T17:37:36.758Z,-3.60
2019-01-24T17:40:17.768Z,-3.60
2019-01-24T17:42:58.953Z,-3.60
2019-01-24T17:45:40.779Z,-3.50
2019-01-24T17:48:22.324Z,-3.50
2019-01-24T17:51:01.818Z,-3.50
2019-01-24T17:56:51.791Z,-3.60
2019-01-24T17:59:33.505Z,-3.60
2019-01-24T18:02:15.528Z,-3.60
2019-01-24T18:04:55.203Z,-3.60
2019-01-24T18:07:36.810Z,-3.60
2019-01-24T18:10:26.534Z,-3.60
2019-01-24T18:13:08.093Z,-3.60
2019-01-24T18:15:52.148Z,-3.50
2019-01-24T18:18:33.828Z,-3.60
2019-01-24T18:21:15.248Z,-3.60
2019-01-24T18:23:57.026Z,-3.60
2019-01-24T18:26:38.403Z,-3.70
2019-01-24T18:29:19.426Z,-3.70
2019-01-24T18:32:01.057Z,-3.70
2019-01-24T18:34:42.654Z,-3.70
2019-01-24T18:37:24.215Z,-3.70
2019-01-24T18:40:06.409Z,-3.70
2019-01-24T18:42:35.943Z,-3.70
2019-01-24T18:45:08.178Z,-3.70
2019-01-24T18:50:58.167Z,-3.70
2019-01-24T18:53:39.249Z,-3.70
2019-01-24T18:56:20.970Z,-3.70
2019-01-24T18:59:02.770Z,-3.70
2019-01-24T19:01:44.285Z,-3.70
2019-01-24T19:04:25.942Z,-3.60
2019-01-24T19:07:06.823Z,-3.60
2019-01-24T19:09:47.767Z,-3.70
2019-01-24T19:12:29.393Z,-3.70
2019-01-24T19:15:11.045Z,-3.70
2019-01-24T19:17:52.290Z,-3.70
2019-01-24T19:20:34.847Z,-3.70
2019-01-24T19:23:15.940Z,-3.80
2019-01-24T19:25:57.376Z,-3.80
2019-01-24T19:28:41.483Z,-3.80
2019-01-24T19:31:22.652Z,-3.90
2019-01-24T19:34:04.485Z,-3.90
2019-01-24T19:36:46.246Z,-3.90
2019-01-24T19:39:25.873Z,-3.90
2019-01-24T19:45:02.794Z,-4.00
2019-01-24T19:47:44.047Z,-4.00
2019-01-24T19:50:26.192Z,-4.00
2019-01-24T19:53:07.478Z,-4.10
2019-01-24T20:01:42.671Z,-4.10
2019-01-24T20:04:24.100Z,-4.00
2019-01-24T20:07:05.898Z,-3.90
2019-01-24T20:09:35.235Z,-3.80
2019-01-24T20:12:37.719Z,-3.80
2019-01-24T20:18:20.870Z,-3.70
2019-01-24T20:21:02.464Z,-3.70
2019-01-24T20:23:43.893Z,-3.70
2019-01-24T20:26:25.764Z,-3.60
2019-01-24T20:29:07.387Z,-3.70
2019-01-24T20:31:36.791Z,-3.70
2019-01-24T20:34:06.137Z,-3.80
2019-01-24T20:36:35.521Z,-3.90
2019-01-24T20:42:24.247Z,-4.10
2019-01-24T20:45:05.915Z,-4.00
2019-01-24T20:47:47.577Z,-4.00
2019-01-24T20:50:28.889Z,-4.00
2019-01-24T20:53:09.874Z,-4.10
2019-01-24T20:55:51.563Z,-4.10
2019-01-24T20:58:33.560Z,-4.10
2019-01-24T21:01:14.886Z,-4.10
2019-01-24T21:03:56.471Z,-4.20
2019-01-24T21:06:38.246Z,-4.20
2019-01-24T21:09:14.717Z,-4.30
2019-01-24T21:11:52.004Z,-4.40
2019-01-24T21:14:33.618Z,-4.50
2019-01-24T21:17:14.953Z,-4.50
2019-01-24T21:19:55.980Z,-4.50
2019-01-24T21:22:37.499Z,-4.60
2019-01-24T21:25:09.788Z,-4.60
2019-01-24T21:33:44.936Z,-4.50
2019-01-24T21:36:25.931Z,-4.40
2019-01-24T21:39:07.595Z,-4.30
2019-01-24T21:41:49.066Z,-4.30
2019-01-24T21:44:30.733Z,-4.30
2019-01-24T21:47:12.070Z,-4.40
2019-01-24T21:49:53.375Z,-4.50
2019-01-24T21:52:34.983Z,-4.70
2019-01-24T21:55:07.227Z,-4.70
2019-01-24T21:57:36.234Z,-4.70
2019-01-24T22:00:08.243Z,-4.60
2019-01-24T22:02:37.560Z,-4.50
2019-01-24T22:05:09.122Z,-4.40
2019-01-24T22:13:43.716Z,-4.40
2019-01-24T22:16:24.419Z,-4.50
2019-01-24T22:19:05.249Z,-4.60
2019-01-24T22:21:46.215Z,-4.60
2019-01-24T22:24:26.929Z,-4.60
2019-01-24T22:27:08.629Z,-4.70
2019-01-24T22:29:49.422Z,-4.90
2019-01-24T22:32:30.112Z,-5.00
2019-01-24T22:35:11.260Z,-5.00
2019-01-24T22:37:52.853Z,-4.80
2019-01-24T22:40:33.495Z,-4.70
2019-01-24T22:43:14.269Z,-4.60
2019-01-24T22:45:55.352Z,-4.50
2019-01-24T22:48:36.526Z,-4.40
2019-01-24T22:51:05.484Z,-4.30
2019-01-24T22:53:53.753Z,-4.30
2019-01-24T22:56:35.509Z,-4.30
2019-01-24T22:59:17.245Z,-4.30
2019-01-24T23:01:57.948Z,-4.40
2019-01-24T23:04:38.990Z,-4.40
2019-01-24T23:07:09.038Z,-4.40
2019-01-24T23:10:11.410Z,-4.60
2019-01-24T23:15:35.663Z,-4.80
2019-01-24T23:18:16.581Z,-4.80
2019-01-24T23:20:57.321Z,-4.90
2019-01-24T23:23:38.284Z,-4.90
2019-01-24T23:26:19.357Z,-4.90
2019-01-24T23:29:00.664Z,-4.80
2019-01-24T23:31:41.514Z,-4.80
2019-01-24T23:34:10.500Z,-4.80
2019-01-24T23:36:58.840Z,-4.60
2019-01-24T23:39:40.279Z,-4.60
2019-01-24T23:42:09.407Z,-4.60
2019-01-24T23:45:09.491Z,-4.40
2019-01-24T23:47:39.869Z,-4.40
2019-01-24T23:50:09.930Z,-4.50
2019-01-24T23:53:09.801Z,-4.50
2019-01-24T23:55:40.766Z,-4.50
2019-01-24T23:58:10.572Z,-4.40
